sensor_id;sensor_type;location;lat;lon;timestamp;pressure;altitude;pressure_sealevel;temperature;humidity
47763;BME280;33526;42.690;23.322;2022-12-18T00:01:31;95596.22;;;4.55;94.62
47763;BME280;33526;42.690;23.322;2022-12-18T00:04:02;95765.19;;;5.75;94.79
47763;BME280;33526;42.690;23.322;2022-12-18T00:06:29;95667.19;;;5.04;94.86
47763;BME280;33526;42.690;23.322;2022-12-18T00:08:57;95749.66;;;5.54;95.54
47763;BME280;33526;42.690;23.322;2022-12-18T00:11:25;95756.44;;;5.53;93.86
47763;BME280;33526;42.690;23.322;2022-12-18T00:13:54;95634.09;;;4.66;94.50
47763;BME280;33526;42.690;23.322;2022-12-18T00:16:22;95724.38;;;5.21;94.13
47763;BME280;33526;42.690;23.322;2022-12-18T00:18:50;95627.19;;;4.50;93.63
47763;BME280;33526;42.690;23.322;2022-12-18T00:21:19;95801.78;;;5.66;95.08
47763;BME280;33526;42.690;23.322;2022-12-18T00:23:57;95821.38;;;5.83;94.96
47763;BME280;33526;42.690;23.322;2022-12-18T00:26:26;95651.53;;;4.63;94.61
47763;BME280;33526;42.690;23.322;2022-12-18T00:28:52;95726.44;;;4.86;93.55
47763;BME280;33526;42.690;23.322;2022-12-18T00:31:21;95866.69;;;5.72;94.25
47763;BME280;33526;42.690;23.322;2022-12-18T00:33:57;95704.63;;;4.57;94.82
47763;BME280;33526;42.690;23.322;2022-12-18T00:36:41;95754.25;;;4.79;95.16
47763;BME280;33526;42.690;23.322;2022-12-18T00:39:18;95669.34;;;4.31;95.30
47763;BME280;33526;42.690;23.322;2022-12-18T00:41:44;95781.66;;;5.04;94.55
47763;BME280;33526;42.690;23.322;2022-12-18T00:44:39;95808.03;;;5.16;93.29
47763;BME280;33526;42.690;23.322;2022-12-18T00:47:05;95751.75;;;4.88;94.04
47763;BME280;33526;42.690;23.322;2022-12-18T00:49:31;95741.66;;;4.71;93.02
47763;BME280;33526;42.690;23.322;2022-12-18T00:52:01;95892.66;;;5.59;93.25
47763;BME280;33526;42.690;23.322;2022-12-18T00:54:28;95822.78;;;5.06;92.97
47763;BME280;33526;42.690;23.322;2022-12-18T00:56:54;95888.72;;;5.56;93.58
47763;BME280;33526;42.690;23.322;2022-12-18T00:59:20;95768.63;;;4.67;93.61
47763;BME280;33526;42.690;23.322;2022-12-18T01:01:46;95819.38;;;4.94;93.53
47763;BME280;33526;42.690;23.322;2022-12-18T01:04:14;95713.28;;;4.29;93.11
47763;BME280;33526;42.690;23.322;2022-12-18T01:06:40;95694.78;;;4.18;93.87
47763;BME280;33526;42.690;23.322;2022-12-18T01:09:14;95755.22;;;4.62;92.68
47763;BME280;33526;42.690;23.322;2022-12-18T01:11:47;95822.91;;;4.95;92.10
47763;BME280;33526;42.690;23.322;2022-12-18T01:14:15;95862.00;;;5.08;92.17
47763;BME280;33526;42.690;23.322;2022-12-18T01:16:42;95823.97;;;4.74;92.00
47763;BME280;33526;42.690;23.322;2022-12-18T01:19:12;95856.38;;;4.77;93.27
47763;BME280;33526;42.690;23.322;2022-12-18T01:21:48;95804.50;;;4.43;93.21
47763;BME280;33526;42.690;23.322;2022-12-18T01:24:17;95835.56;;;4.62;93.48
47763;BME280;33526;42.690;23.322;2022-12-18T01:26:53;95797.44;;;4.35;93.75
47763;BME280;33526;42.690;23.322;2022-12-18T01:29:22;95691.78;;;3.60;93.78
47763;BME280;33526;42.690;23.322;2022-12-18T01:31:49;95727.56;;;3.82;94.18
47763;BME280;33526;42.690;23.322;2022-12-18T01:34:18;95730.69;;;3.84;93.35
47763;BME280;33526;42.690;23.322;2022-12-18T01:36:49;95872.69;;;4.68;93.46
47763;BME280;33526;42.690;23.322;2022-12-18T01:39:21;95738.59;;;3.86;94.11
47763;BME280;33526;42.690;23.322;2022-12-18T01:42:02;95866.88;;;4.55;93.13
47763;BME280;33526;42.690;23.322;2022-12-18T01:45:27;95940.97;;;4.89;94.26
47763;BME280;33526;42.690;23.322;2022-12-18T01:48:00;95767.59;;;3.63;94.85
47763;BME280;33526;42.690;23.322;2022-12-18T01:50:38;95749.47;;;3.58;94.44
47763;BME280;33526;42.690;23.322;2022-12-18T01:53:28;95936.94;;;4.97;94.55
47763;BME280;33526;42.690;23.322;2022-12-18T01:55:56;95868.56;;;4.45;92.77
47763;BME280;33526;42.690;23.322;2022-12-18T01:58:39;95954.44;;;4.90;94.20
47763;BME280;33526;42.690;23.322;2022-12-18T02:01:11;95800.91;;;4.01;93.31
47763;BME280;33526;42.690;23.322;2022-12-18T02:03:42;95951.34;;;4.81;93.78
47763;BME280;33526;42.690;23.322;2022-12-18T02:06:16;95937.19;;;4.72;93.77
47763;BME280;33526;42.690;23.322;2022-12-18T02:09:07;95947.09;;;4.66;94.46
47763;BME280;33526;42.690;23.322;2022-12-18T02:11:53;95828.38;;;3.74;93.94
47763;BME280;33526;42.690;23.322;2022-12-18T02:14:40;95807.13;;;3.60;94.67
47763;BME280;33526;42.690;23.322;2022-12-18T02:18:19;95957.13;;;4.52;93.63
47763;BME280;33526;42.690;23.322;2022-12-18T02:20:28;95724.22;;;2.93;93.78
47763;BME280;33526;42.690;23.322;2022-12-18T02:23:31;95784.00;;;3.32;94.24
47763;BME280;33526;42.690;23.322;2022-12-18T02:26:50;95837.22;;;3.51;94.75
47763;BME280;33526;42.690;23.322;2022-12-18T02:29:53;95824.25;;;3.40;94.52
47763;BME280;33526;42.690;23.322;2022-12-18T02:32:44;95832.91;;;3.46;95.23
47763;BME280;33526;42.690;23.322;2022-12-18T02:35:19;95880.44;;;3.90;95.59
47763;BME280;33526;42.690;23.322;2022-12-18T02:37:52;95773.03;;;3.18;95.41
47763;BME280;33526;42.690;23.322;2022-12-18T02:40:23;95834.47;;;3.47;94.83
47763;BME280;33526;42.690;23.322;2022-12-18T02:43:10;95766.47;;;2.90;94.82
47763;BME280;33526;42.690;23.322;2022-12-18T02:45:53;95855.44;;;3.41;96.01
47763;BME280;33526;42.690;23.322;2022-12-18T03:00:43;95946.38;;;4.06;94.87
47763;BME280;33526;42.690;23.322;2022-12-18T03:03:33;95973.84;;;4.38;95.74
47763;BME280;33526;42.690;23.322;2022-12-18T03:09:00;95923.09;;;3.96;95.63
47763;BME280;33526;42.690;23.322;2022-12-18T03:11:33;95871.47;;;3.71;96.02
47763;BME280;33526;42.690;23.322;2022-12-18T03:14:21;95939.19;;;4.15;94.07
47763;BME280;33526;42.690;23.322;2022-12-18T03:16:51;95871.59;;;3.53;94.62
47763;BME280;33526;42.690;23.322;2022-12-18T03:19:38;95982.88;;;4.46;94.48
47763;BME280;33526;42.690;23.322;2022-12-18T03:22:10;96014.09;;;4.50;94.57
47763;BME280;33526;42.690;23.322;2022-12-18T03:24:45;95898.22;;;3.89;94.25
47763;BME280;33526;42.690;23.322;2022-12-18T03:27:19;95930.13;;;4.08;94.05
47763;BME280;33526;42.690;23.322;2022-12-18T03:30:08;95823.47;;;3.36;92.85
47763;BME280;33526;42.690;23.322;2022-12-18T03:35:32;95804.66;;;3.06;93.29
47763;BME280;33526;42.690;23.322;2022-12-18T03:38:02;95900.34;;;3.67;93.05
47763;BME280;33526;42.690;23.322;2022-12-18T03:40:53;95853.47;;;3.41;90.89
47763;BME280;33526;42.690;23.322;2022-12-18T03:43:51;96029.16;;;4.49;91.45
47763;BME280;33526;42.690;23.322;2022-12-18T03:50:10;95945.34;;;3.74;89.24
47763;BME280;33526;42.690;23.322;2022-12-18T03:53:12;95862.22;;;3.22;90.33
47763;BME280;33526;42.690;23.322;2022-12-18T03:55:47;95847.31;;;3.09;89.52
47763;BME280;33526;42.690;23.322;2022-12-18T03:58:23;96046.63;;;4.38;89.64
47763;BME280;33526;42.690;23.322;2022-12-18T04:00:52;96035.25;;;4.22;89.85
47763;BME280;33526;42.690;23.322;2022-12-18T04:03:23;95908.78;;;3.34;90.28
47763;BME280;33526;42.690;23.322;2022-12-18T04:05:51;95837.53;;;2.79;89.76
47763;BME280;33526;42.690;23.322;2022-12-18T04:08:19;95853.66;;;2.91;90.34
47763;BME280;33526;42.690;23.322;2022-12-18T04:10:52;96048.28;;;4.25;89.99
47763;BME280;33526;42.690;23.322;2022-12-18T04:13:38;96069.69;;;4.10;89.31
47763;BME280;33526;42.690;23.322;2022-12-18T04:16:05;95845.47;;;2.55;89.15
47763;BME280;33526;42.690;23.322;2022-12-18T04:18:33;96071.28;;;4.11;88.61
47763;BME280;33526;42.690;23.322;2022-12-18T04:20:58;96089.06;;;4.10;88.18
47763;BME280;33526;42.690;23.322;2022-12-18T04:23:27;96052.34;;;3.99;87.82
47763;BME280;33526;42.690;23.322;2022-12-18T04:25:56;96054.72;;;4.04;87.85
47763;BME280;33526;42.690;23.322;2022-12-18T04:28:26;95999.53;;;3.61;86.93
47763;BME280;33526;42.690;23.322;2022-12-18T04:30:54;96040.53;;;3.88;87.01
47763;BME280;33526;42.690;23.322;2022-12-18T04:33:35;96058.69;;;3.96;87.00
47763;BME280;33526;42.690;23.322;2022-12-18T04:36:04;95957.78;;;3.30;87.67
47763;BME280;33526;42.690;23.322;2022-12-18T07:17:52;96121.59;;;2.70;78.47
47763;BME280;33526;42.690;23.322;2022-12-18T07:42:46;96193.41;;;2.70;80.79
47763;BME280;33526;42.690;23.322;2022-12-18T07:45:32;96299.00;;;3.36;81.28
47763;BME280;33526;42.690;23.322;2022-12-18T07:58:26;96201.63;;;2.52;82.32
47763;BME280;33526;42.690;23.322;2022-12-18T08:01:16;96171.13;;;2.19;82.34
47763;BME280;33526;42.690;23.322;2022-12-18T08:04:04;96240.38;;;2.70;82.92
47763;BME280;33526;42.690;23.322;2022-12-18T08:10:44;96240.00;;;2.75;82.88
47763;BME280;33526;42.690;23.322;2022-12-18T08:34:25;96298.56;;;3.20;79.76
47763;BME280;33526;42.690;23.322;2022-12-18T08:37:24;96287.88;;;3.15;79.11
47763;BME280;33526;42.690;23.322;2022-12-18T08:40:18;96164.50;;;2.35;78.81
47763;BME280;33526;42.690;23.322;2022-12-18T08:43:10;96368.19;;;3.69;78.55
47763;BME280;33526;42.690;23.322;2022-12-18T09:04:38;96198.00;;;2.29;76.38
47763;BME280;33526;42.690;23.322;2022-12-18T09:07:49;96266.53;;;2.97;76.37
47763;BME280;33526;42.690;23.322;2022-12-18T09:17:35;96375.31;;;3.62;74.20
47763;BME280;33526;42.690;23.322;2022-12-18T09:20:34;96369.38;;;3.64;74.22
47763;BME280;33526;42.690;23.322;2022-12-18T15:22:20;96485.72;;;4.07;63.39
47763;BME280;33526;42.690;23.322;2022-12-18T15:26:12;96305.06;;;2.65;63.21
47763;BME280;33526;42.690;23.322;2022-12-18T15:29:02;96315.31;;;2.64;64.09
47763;BME280;33526;42.690;23.322;2022-12-18T15:31:35;96397.28;;;3.16;63.21
47763;BME280;33526;42.690;23.322;2022-12-18T15:34:37;96413.50;;;3.21;64.11
47763;BME280;33526;42.690;23.322;2022-12-18T15:54:40;96464.59;;;3.56;66.21
47763;BME280;33526;42.690;23.322;2022-12-18T16:57:18;96512.63;;;3.22;67.78
47763;BME280;33526;42.690;23.322;2022-12-18T16:59:45;96597.06;;;3.72;67.54
47763;BME280;33526;42.690;23.322;2022-12-18T17:05:12;96468.41;;;2.63;67.14
47763;BME280;33526;42.690;23.322;2022-12-18T17:13:29;96619.78;;;3.43;67.51
47763;BME280;33526;42.690;23.322;2022-12-18T17:45:35;96481.13;;;2.27;68.62
47763;BME280;33526;42.690;23.322;2022-12-18T17:48:08;96614.91;;;3.22;68.41
47763;BME280;33526;42.690;23.322;2022-12-18T17:50:51;96472.78;;;2.23;68.03
47763;BME280;33526;42.690;23.322;2022-12-18T17:53:21;96449.78;;;2.08;67.70
47763;BME280;33526;42.690;23.322;2022-12-18T17:56:18;96537.75;;;2.55;68.14
47763;BME280;33526;42.690;23.322;2022-12-18T17:59:30;96478.53;;;2.04;68.77
47763;BME280;33526;42.690;23.322;2022-12-18T19:13:49;96672.28;;;2.20;70.17
47763;BME280;33526;42.690;23.322;2022-12-18T19:16:26;96584.50;;;1.69;70.65
47763;BME280;33526;42.690;23.322;2022-12-18T19:39:33;96721.84;;;2.13;69.81
47763;BME280;33526;42.690;23.322;2022-12-18T19:42:23;96591.00;;;1.27;70.02
47763;BME280;33526;42.690;23.322;2022-12-18T19:44:50;96664.78;;;1.64;70.69
47763;BME280;33526;42.690;23.322;2022-12-18T19:47:34;96726.63;;;2.16;70.07
47763;BME280;33526;42.690;23.322;2022-12-18T19:49:59;96732.84;;;2.09;70.33
47763;BME280;33526;42.690;23.322;2022-12-18T19:52:31;96638.50;;;1.43;70.94
47763;BME280;33526;42.690;23.322;2022-12-18T19:55:05;96744.88;;;2.24;70.20
47763;BME280;33526;42.690;23.322;2022-12-18T19:57:54;96636.72;;;1.28;70.81
47763;BME280;33526;42.690;23.322;2022-12-18T20:27:13;96635.78;;;0.97;71.06
47763;BME280;33526;42.690;23.322;2022-12-18T20:30:21;96611.81;;;0.74;70.91
47763;BME280;33526;42.690;23.322;2022-12-18T20:32:47;96604.16;;;0.64;70.68
47763;BME280;33526;42.690;23.322;2022-12-18T20:35:13;96711.84;;;1.25;70.58
47763;BME280;33526;42.690;23.322;2022-12-18T20:37:40;96729.22;;;1.29;70.80
47763;BME280;33526;42.690;23.322;2022-12-18T20:40:07;96659.22;;;0.64;71.37
47763;BME280;33526;42.690;23.322;2022-12-18T20:42:34;96750.44;;;1.25;71.71
47763;BME280;33526;42.690;23.322;2022-12-18T20:45:00;96668.59;;;0.83;71.93
47763;BME280;33526;42.690;23.322;2022-12-18T20:47:26;96760.72;;;1.28;71.54
47763;BME280;33526;42.690;23.322;2022-12-18T20:49:51;96710.22;;;0.78;71.35
47763;BME280;33526;42.690;23.322;2022-12-18T20:52:18;96758.44;;;1.10;72.17
47763;BME280;33526;42.690;23.322;2022-12-18T20:54:45;96762.03;;;1.14;71.56
47763;BME280;33526;42.690;23.322;2022-12-18T20:57:11;96734.88;;;0.70;71.47
47763;BME280;33526;42.690;23.322;2022-12-18T20:59:36;96811.38;;;1.00;72.61
47763;BME280;33526;42.690;23.322;2022-12-18T21:02:02;96688.53;;;0.33;72.98
47763;BME280;33526;42.690;23.322;2022-12-18T21:04:27;96704.31;;;0.56;73.53
47763;BME280;33526;42.690;23.322;2022-12-18T21:06:54;96792.34;;;1.14;72.99
47763;BME280;33526;42.690;23.322;2022-12-18T21:09:26;96697.34;;;0.62;72.64
47763;BME280;33526;42.690;23.322;2022-12-18T21:11:57;96667.97;;;0.27;71.80
47763;BME280;33526;42.690;23.322;2022-12-18T21:14:43;96785.84;;;1.03;72.48
47763;BME280;33526;42.690;23.322;2022-12-18T21:17:09;96685.06;;;0.36;72.83
47763;BME280;33526;42.690;23.322;2022-12-18T21:19:41;96697.78;;;0.45;73.46
47763;BME280;33526;42.690;23.322;2022-12-18T21:22:10;96799.59;;;1.23;72.81
47763;BME280;33526;42.690;23.322;2022-12-18T21:24:36;96726.53;;;0.67;72.25
47763;BME280;33526;42.690;23.322;2022-12-18T21:27:38;96650.00;;;0.14;73.06
47763;BME280;33526;42.690;23.322;2022-12-18T21:30:11;96799.59;;;1.23;73.05
47763;BME280;33526;42.690;23.322;2022-12-18T21:32:41;96633.00;;;0.28;72.27
47763;BME280;33526;42.690;23.322;2022-12-18T21:35:07;96702.31;;;0.76;72.49
47763;BME280;33526;42.690;23.322;2022-12-18T21:37:33;96747.03;;;0.89;71.99
47763;BME280;33526;42.690;23.322;2022-12-18T21:39:58;96716.91;;;0.57;72.21
47763;BME280;33526;42.690;23.322;2022-12-18T21:42:24;96676.94;;;0.44;72.75
47763;BME280;33526;42.690;23.322;2022-12-18T21:45:09;96673.91;;;0.49;72.81
47763;BME280;33526;42.690;23.322;2022-12-18T21:47:37;96690.91;;;0.54;72.18
47763;BME280;33526;42.690;23.322;2022-12-18T21:50:08;96652.31;;;0.12;72.83
47763;BME280;33526;42.690;23.322;2022-12-18T22:08:23;96812.47;;;0.95;74.45
47763;BME280;33526;42.690;23.322;2022-12-18T22:16:53;96811.91;;;0.67;72.98
47763;BME280;33526;42.690;23.322;2022-12-18T23:09:33;96662.28;;;-0.19;72.34
47763;BME280;33526;42.690;23.322;2022-12-18T23:12:46;96796.44;;;0.62;72.45
47763;BME280;33526;42.690;23.322;2022-12-18T23:18:16;96791.94;;;0.54;73.76
47763;BME280;33526;42.690;23.322;2022-12-18T23:21:18;96591.69;;;-0.70;73.21
47763;BME280;33526;42.690;23.322;2022-12-18T23:24:22;96600.44;;;-0.64;73.15
47763;BME280;33526;42.690;23.322;2022-12-18T23:27:17;96557.72;;;-0.97;73.52
47763;BME280;33526;42.690;23.322;2022-12-18T23:29:52;96559.81;;;-0.90;73.17
47763;BME280;33526;42.690;23.322;2022-12-18T23:32:29;96742.25;;;0.27;73.66
47763;BME280;33526;42.690;23.322;2022-12-18T23:40:12;96681.94;;;-0.01;72.87
47763;BME280;33526;42.690;23.322;2022-12-18T23:43:06;96555.59;;;-1.04;72.94
47763;BME280;33526;42.690;23.322;2022-12-18T23:48:15;96792.25;;;0.49;73.79
47763;BME280;33526;42.690;23.322;2022-12-18T23:50:55;96602.75;;;-0.66;74.09
